Time;durP1;ratioP1;P1;durP2;ratioP2;P2;SDS_P1;SDS_P2;PMS_P1;PMS_P2;Temp;Humidity;BMP_temperature;BMP_pressure;BME280_temperature;BME280_humidity;BME280_pressure;Samples;Min_cycle;Max_cycle;Signal;HPM_P1;HPM_P2
2022/12/27 00:02:15;;;;;;;37.38;6.03;;;;;;;;;;4943896;28;20045;-72
2022/12/27 00:04:40;;;;;;;33.35;5.38;;;;;;;;;;4925079;28;20605;-68
2022/12/27 00:07:09;;;;;;;36.97;5.28;;;;;;;;;;4941623;28;20195;-69
2022/12/27 00:09:34;;;;;;;28.33;4.68;;;;;;;;;;4925983;28;20558;-71
2022/12/27 00:12:00;;;;;;;30.48;4.93;;;;;;;;;;4943858;28;20492;-70
2022/12/27 00:14:25;;;;;;;30.20;4.20;;;;;;;;;;4940797;28;20034;-71
2022/12/27 00:16:50;;;;;;;26.98;4.72;;;;;;;;;;4942873;28;20120;-70
2022/12/27 00:19:16;;;;;;;36.53;5.25;;;;;;;;;;4942791;28;20150;-69
2022/12/27 00:21:41;;;;;;;37.65;4.95;;;;;;;;;;4924414;28;20031;-71
2022/12/27 00:24:09;;;;;;;38.63;5.65;;;;;;;;;;4939643;28;20060;-71
2022/12/27 00:26:34;;;;;;;24.60;4.30;;;;;;;;;;4942678;28;20027;-70
2022/12/27 00:29:02;;;;;;;24.83;4.03;;;;;;;;;;4942129;28;20646;-70
2022/12/27 00:31:28;;;;;;;17.83;3.22;;;;;;;;;;4941508;28;20707;-68
2022/12/27 00:33:57;;;;;;;21.00;3.80;;;;;;;;;;4942227;28;20601;-70
2022/12/27 00:36:24;;;;;;;29.30;4.70;;;;;;;;;;4941586;28;20270;-69
2022/12/27 00:38:50;;;;;;;36.55;5.55;;;;;;;;;;4941491;28;20035;-69
2022/12/27 00:41:18;;;;;;;42.38;6.45;;;;;;;;;;4924006;28;20039;-69
2022/12/27 00:43:44;;;;;;;31.55;5.45;;;;;;;;;;4941464;28;20035;-69
2022/12/27 00:46:12;;;;;;;30.73;4.25;;;;;;;;;;4936263;28;20232;-69
2022/12/27 00:48:37;;;;;;;30.58;4.25;;;;;;;;;;4923232;28;20032;-70
2022/12/27 00:51:11;;;;;;;41.50;5.03;;;;;;;;;;4921909;28;20679;-70
2022/12/27 00:53:36;;;;;;;28.35;4.28;;;;;;;;;;4924223;28;20108;-69
2022/12/27 00:56:11;;;;;;;31.63;5.72;;;;;;;;;;4922802;28;20032;-69
2022/12/27 00:58:36;;;;;;;29.00;4.72;;;;;;;;;;4922468;28;20471;-69
2022/12/27 01:01:10;;;;;;;32.58;4.45;;;;;;;;;;4922798;28;20054;-70
2022/12/27 01:03:36;;;;;;;33.78;4.45;;;;;;;;;;4927884;28;20027;-69
2022/12/27 01:06:09;;;;;;;29.75;4.50;;;;;;;;;;4922934;28;20034;-70
2022/12/27 01:08:36;;;;;;;26.25;4.75;;;;;;;;;;4922213;28;20062;-70
2022/12/27 01:11:02;;;;;;;33.75;4.88;;;;;;;;;;4930421;28;20047;-70
2022/12/27 01:13:28;;;;;;;31.02;5.20;;;;;;;;;;4940292;28;20189;-70
2022/12/27 01:15:53;;;;;;;33.67;4.70;;;;;;;;;;4923726;28;20100;-71
2022/12/27 01:18:18;;;;;;;27.27;4.13;;;;;;;;;;4940567;28;20039;-69
2022/12/27 01:20:44;;;;;;;29.80;3.90;;;;;;;;;;4923921;28;20561;-69
2022/12/27 01:23:09;;;;;;;28.05;4.45;;;;;;;;;;4940577;28;20188;-70
2022/12/27 01:25:34;;;;;;;36.90;5.28;;;;;;;;;;4923610;28;20085;-70
2022/12/27 01:27:59;;;;;;;33.40;5.25;;;;;;;;;;4940701;28;20035;-71
2022/12/27 01:30:25;;;;;;;34.20;4.40;;;;;;;;;;4923890;28;20035;-68
2022/12/27 01:32:52;;;;;;;22.70;3.20;;;;;;;;;;4939446;28;20495;-69
2022/12/27 01:35:20;;;;;;;26.15;3.88;;;;;;;;;;4941111;28;22211;-69
2022/12/27 01:37:47;;;;;;;38.25;5.45;;;;;;;;;;4941019;28;20773;-68
2022/12/27 01:40:13;;;;;;;34.05;5.32;;;;;;;;;;4940123;28;20023;-69
2022/12/27 01:42:54;;;;;;;34.88;5.80;;;;;;;;;;4940770;28;20489;-69
2022/12/27 01:45:26;;;;;;;38.45;6.28;;;;;;;;;;4922209;28;20856;-68
2022/12/27 01:47:53;;;;;;;28.33;4.65;;;;;;;;;;4932878;28;20653;-68
2022/12/27 01:50:24;;;;;;;34.30;6.28;;;;;;;;;;4927260;28;20143;-69
2022/12/27 01:52:50;;;;;;;28.08;5.22;;;;;;;;;;4904245;28;20065;-73
2022/12/27 01:55:32;;;;;;;26.63;4.65;;;;;;;;;;4939795;28;20373;-69
2022/12/27 01:58:10;;;;;;;22.98;3.63;;;;;;;;;;4923353;28;20034;-69
2022/12/27 02:00:36;;;;;;;40.97;4.55;;;;;;;;;;4938953;28;20038;-69
2022/12/27 02:03:02;;;;;;;36.38;5.65;;;;;;;;;;4940512;28;20286;-68
2022/12/27 02:05:28;;;;;;;31.45;6.38;;;;;;;;;;4939651;28;20508;-69
2022/12/27 02:07:59;;;;;;;30.08;4.68;;;;;;;;;;4940630;28;20049;-69
2022/12/27 02:10:26;;;;;;;32.40;5.20;;;;;;;;;;4939263;28;20047;-69
2022/12/27 02:12:54;;;;;;;39.90;5.65;;;;;;;;;;4940010;28;20165;-69
2022/12/27 02:15:19;;;;;;;29.08;4.25;;;;;;;;;;4922823;28;20042;-69
2022/12/27 02:17:44;;;;;;;29.70;5.00;;;;;;;;;;4940368;28;20552;-70
2022/12/27 02:20:14;;;;;;;29.98;3.78;;;;;;;;;;4940173;28;20038;-69
2022/12/27 02:26:09;;;;;;;26.63;4.32;;;;;;;;;;4939836;28;20463;-70
2022/12/27 02:28:45;;;;;;;36.33;5.13;;;;;;;;;;4921984;28;20062;-70
2022/12/27 02:31:14;;;;;;;29.65;5.88;;;;;;;;;;4922072;28;20085;-69
2022/12/27 02:33:45;;;;;;;23.70;4.47;;;;;;;;;;4939844;28;20141;-69
2022/12/27 02:36:13;;;;;;;34.03;5.40;;;;;;;;;;4922288;28;20520;-69
2022/12/27 02:38:41;;;;;;;29.40;5.45;;;;;;;;;;4939480;28;20258;-70
2022/12/27 02:55:17;;;;;;;31.80;5.10;;;;;;;;;;4942410;28;20038;-69
2022/12/27 02:57:59;;;;;;;39.33;5.03;;;;;;;;;;4942329;28;20089;-68
2022/12/27 03:03:27;;;;;;;42.85;6.45;;;;;;;;;;4942439;28;20031;-70
2022/12/27 03:08:45;;;;;;;29.80;4.72;;;;;;;;;;4941947;28;20035;-69
2022/12/27 03:16:54;;;;;;;39.40;5.45;;;;;;;;;;4942195;28;20073;-68
2022/12/27 03:27:40;;;;;;;26.08;4.65;;;;;;;;;;4942321;28;20042;-69
2022/12/27 03:33:11;;;;;;;28.63;4.85;;;;;;;;;;4927470;28;20464;-69
2022/12/27 03:35:40;;;;;;;23.10;3.58;;;;;;;;;;4941593;28;20035;-69
2022/12/27 03:38:11;;;;;;;26.40;4.05;;;;;;;;;;4941545;28;20096;-69
2022/12/27 03:43:09;;;;;;;31.27;4.55;;;;;;;;;;4941909;28;20031;-68
2022/12/27 03:43:30;;;;;;;33.92;4.90;;;;;;;;;;4942667;28;20499;-69
2022/12/27 03:49:10;;;;;;;26.55;4.30;;;;;;;;;;4942186;28;20118;-68
2022/12/27 03:51:43;;;;;;;24.60;4.18;;;;;;;;;;4941186;28;20047;-68
2022/12/27 03:54:17;;;;;;;28.80;4.40;;;;;;;;;;4941939;28;20039;-69
2022/12/27 03:56:42;;;;;;;28.10;4.03;;;;;;;;;;4940364;28;20504;-69
2022/12/27 03:59:09;;;;;;;29.67;5.05;;;;;;;;;;4941500;28;20030;-69
2022/12/27 04:01:35;;;;;;;33.00;5.50;;;;;;;;;;4941556;28;20034;-68
2022/12/27 04:04:00;;;;;;;27.63;4.10;;;;;;;;;;4924685;28;20027;-69
2022/12/27 04:06:27;;;;;;;26.27;4.68;;;;;;;;;;4940710;28;20034;-69
2022/12/27 04:36:16;;;;;;;27.90;4.30;;;;;;;;;;4926642;28;20066;-69
2022/12/27 04:38:41;;;;;;;27.20;4.47;;;;;;;;;;4940956;28;20197;-68
2022/12/27 04:55:15;;;;;;;21.02;3.67;;;;;;;;;;4940090;28;20541;-69
2022/12/27 04:57:41;;;;;;;22.90;3.80;;;;;;;;;;4940383;28;20038;-68
2022/12/27 05:02:50;;;;;;;27.75;4.32;;;;;;;;;;4940426;28;20596;-69
2022/12/27 05:05:18;;;;;;;33.25;5.38;;;;;;;;;;4940573;28;20042;-69
2022/12/27 05:16:00;;;;;;;25.25;4.18;;;;;;;;;;4939941;28;20091;-70
2022/12/27 05:18:25;;;;;;;23.27;4.20;;;;;;;;;;4940522;28;20473;-71
2022/12/27 05:20:50;;;;;;;27.63;5.45;;;;;;;;;;4923495;28;20031;-69
2022/12/27 05:26:00;;;;;;;25.10;4.78;;;;;;;;;;4940503;28;20030;-69
2022/12/27 05:28:25;;;;;;;37.53;5.10;;;;;;;;;;4941130;28;20766;-69
2022/12/27 05:30:56;;;;;;;30.58;4.63;;;;;;;;;;4940437;28;20042;-68
2022/12/27 05:33:21;;;;;;;33.75;4.28;;;;;;;;;;4907153;28;20031;-71
2022/12/27 05:35:46;;;;;;;30.50;4.50;;;;;;;;;;4923147;28;20520;-68
2022/12/27 05:38:11;;;;;;;29.10;4.63;;;;;;;;;;4940422;28;20289;-68
2022/12/27 05:40:37;;;;;;;27.65;4.97;;;;;;;;;;4940642;28;20129;-69
2022/12/27 05:43:02;;;;;;;29.80;4.30;;;;;;;;;;4940199;28;20031;-69
2022/12/27 05:45:28;;;;;;;24.77;4.78;;;;;;;;;;4940550;28;20026;-69
2022/12/27 05:47:57;;;;;;;24.80;5.10;;;;;;;;;;4985330;28;20132;-69
2022/12/27 05:50:22;;;;;;;22.20;4.30;;;;;;;;;;4940423;28;20066;-68
2022/12/27 05:52:47;;;;;;;29.85;5.28;;;;;;;;;;4938826;28;20035;-70
2022/12/27 05:55:13;;;;;;;27.65;5.38;;;;;;;;;;4940717;28;20039;-69
2022/12/27 05:57:38;;;;;;;30.73;3.83;;;;;;;;;;4940376;28;20381;-68
2022/12/27 06:00:07;;;;;;;25.30;3.50;;;;;;;;;;5006421;28;20331;-68
2022/12/27 06:02:35;;;;;;;28.90;3.63;;;;;;;;;;4939848;28;20080;-69
2022/12/27 06:05:01;;;;;;;26.02;5.10;;;;;;;;;;4940207;28;20458;-68
2022/12/27 06:07:28;;;;;;;23.83;3.85;;;;;;;;;;4940603;28;20548;-68
2022/12/27 06:09:55;;;;;;;27.85;3.35;;;;;;;;;;4938971;28;20749;-68
2022/12/27 06:12:21;;;;;;;22.55;4.07;;;;;;;;;;4940261;28;20148;-69
2022/12/27 06:14:46;;;;;;;34.22;5.40;;;;;;;;;;4939820;28;20080;-68
2022/12/27 06:17:11;;;;;;;30.92;4.05;;;;;;;;;;4923124;28;20529;-69
2022/12/27 06:19:36;;;;;;;31.83;4.68;;;;;;;;;;4921450;28;20048;-69
2022/12/27 06:22:02;;;;;;;37.17;5.05;;;;;;;;;;4940466;28;20175;-69
2022/12/27 06:24:29;;;;;;;24.05;4.20;;;;;;;;;;4906419;28;20581;-69
2022/12/27 06:26:54;;;;;;;28.95;3.88;;;;;;;;;;4940337;28;20031;-69
2022/12/27 06:29:20;;;;;;;28.23;4.43;;;;;;;;;;4922289;28;20690;-69
2022/12/27 06:31:46;;;;;;;31.33;3.90;;;;;;;;;;4940847;28;20051;-69
2022/12/27 06:34:11;;;;;;;25.45;3.70;;;;;;;;;;4940171;28;20104;-68
2022/12/27 06:36:41;;;;;;;31.95;4.10;;;;;;;;;;4940340;28;20043;-69
2022/12/27 06:39:06;;;;;;;26.38;3.83;;;;;;;;;;4922204;28;20034;-68
2022/12/27 06:41:31;;;;;;;32.03;4.65;;;;;;;;;;4940476;28;20571;-69
2022/12/27 06:43:57;;;;;;;34.70;4.93;;;;;;;;;;4939341;28;20092;-68
2022/12/27 06:46:23;;;;;;;36.05;4.97;;;;;;;;;;4922183;28;20035;-68
2022/12/27 06:48:53;;;;;;;26.98;4.47;;;;;;;;;;4938760;28;20140;-68
2022/12/27 06:51:19;;;;;;;36.55;4.70;;;;;;;;;;4939098;28;20050;-68
2022/12/27 06:53:45;;;;;;;30.23;4.70;;;;;;;;;;4939444;28;20488;-68
2022/12/27 06:56:18;;;;;;;26.48;3.70;;;;;;;;;;4938648;28;20035;-68
2022/12/27 06:58:44;;;;;;;23.17;4.25;;;;;;;;;;4939058;28;20046;-69
2022/12/27 07:01:20;;;;;;;21.92;4.32;;;;;;;;;;4939344;28;20116;-68
2022/12/27 07:03:51;;;;;;;22.77;4.25;;;;;;;;;;4938572;28;20481;-69
2022/12/27 07:06:17;;;;;;;22.90;3.72;;;;;;;;;;4936684;28;20845;-68
2022/12/27 07:08:45;;;;;;;36.25;4.85;;;;;;;;;;4938659;28;20513;-69
2022/12/27 07:11:12;;;;;;;27.65;3.95;;;;;;;;;;4938708;28;20096;-70
2022/12/27 07:13:39;;;;;;;29.63;3.63;;;;;;;;;;4938948;28;20047;-68
2022/12/27 07:16:07;;;;;;;27.92;4.03;;;;;;;;;;4939441;28;20040;-68
2022/12/27 07:18:33;;;;;;;29.77;5.43;;;;;;;;;;4939314;28;20097;-69
2022/12/27 07:21:02;;;;;;;22.42;3.83;;;;;;;;;;4922362;28;20525;-69
2022/12/27 07:23:27;;;;;;;20.85;3.15;;;;;;;;;;4938905;28;20135;-68
2022/12/27 07:25:59;;;;;;;27.88;4.75;;;;;;;;;;4939277;28;20248;-68
2022/12/27 07:28:25;;;;;;;32.05;5.13;;;;;;;;;;4938847;28;20037;-69
2022/12/27 07:30:50;;;;;;;24.48;4.28;;;;;;;;;;4924680;28;20043;-68
2022/12/27 07:33:15;;;;;;;22.52;3.92;;;;;;;;;;4941723;28;20817;-70
2022/12/27 07:35:40;;;;;;;27.67;3.70;;;;;;;;;;4942874;28;20031;-69
2022/12/27 07:38:06;;;;;;;27.70;4.25;;;;;;;;;;4908678;28;20237;-68
2022/12/27 07:40:34;;;;;;;28.95;3.90;;;;;;;;;;4908992;28;20437;-68
2022/12/27 07:42:59;;;;;;;35.65;4.25;;;;;;;;;;4941980;28;20042;-68
2022/12/27 07:45:25;;;;;;;30.27;5.38;;;;;;;;;;4942724;28;20035;-68
2022/12/27 07:47:52;;;;;;;25.13;3.40;;;;;;;;;;4941225;28;20092;-72
2022/12/27 07:50:17;;;;;;;28.90;4.82;;;;;;;;;;4943756;28;20042;-69
2022/12/27 07:52:42;;;;;;;32.95;4.65;;;;;;;;;;4942559;28;20035;-69
2022/12/27 07:55:07;;;;;;;29.45;3.78;;;;;;;;;;4925906;28;20059;-69
2022/12/27 07:57:33;;;;;;;28.48;3.38;;;;;;;;;;4942200;28;20023;-69
2022/12/27 07:59:58;;;;;;;24.00;3.65;;;;;;;;;;4942864;28;20022;-70
2022/12/27 08:02:26;;;;;;;24.08;3.63;;;;;;;;;;4942756;28;20489;-70
2022/12/27 08:04:51;;;;;;;24.10;4.53;;;;;;;;;;4942068;28;20169;-70
2022/12/27 08:07:21;;;;;;;22.95;3.60;;;;;;;;;;4942277;28;20054;-69
2022/12/27 08:09:47;;;;;;;25.98;3.97;;;;;;;;;;4941645;28;20070;-69
2022/12/27 08:12:12;;;;;;;29.55;4.50;;;;;;;;;;4942076;28;20050;-68
2022/12/27 08:14:38;;;;;;;27.33;3.95;;;;;;;;;;4942284;28;20499;-68
2022/12/27 08:17:13;;;;;;;23.85;3.05;;;;;;;;;;4942058;28;20116;-68
2022/12/27 08:19:40;;;;;;;23.38;4.28;;;;;;;;;;4942037;28;20193;-69
2022/12/27 08:22:05;;;;;;;28.13;4.13;;;;;;;;;;4942716;28;20058;-69
2022/12/27 08:24:31;;;;;;;34.83;4.45;;;;;;;;;;4908622;28;20030;-69
2022/12/27 08:26:56;;;;;;;22.17;4.20;;;;;;;;;;4940393;28;20457;-67
2022/12/27 08:29:22;;;;;;;31.90;4.43;;;;;;;;;;4924442;28;20110;-71
2022/12/27 08:31:47;;;;;;;28.02;4.03;;;;;;;;;;4942379;28;20034;-68
2022/12/27 08:34:13;;;;;;;26.77;4.57;;;;;;;;;;4924021;28;20316;-69
2022/12/27 08:36:40;;;;;;;26.88;3.15;;;;;;;;;;4942686;28;20077;-68
2022/12/27 08:39:08;;;;;;;30.00;3.80;;;;;;;;;;4942542;28;20503;-68
2022/12/27 08:41:33;;;;;;;36.63;5.03;;;;;;;;;;5023609;28;20031;-68
2022/12/27 08:43:58;;;;;;;26.83;4.82;;;;;;;;;;4943488;28;20055;-69
2022/12/27 08:46:24;;;;;;;29.77;3.70;;;;;;;;;;4936620;28;20449;-69
2022/12/27 08:48:50;;;;;;;25.20;4.50;;;;;;;;;;4923926;28;20032;-68
2022/12/27 08:51:16;;;;;;;27.65;3.67;;;;;;;;;;4925883;28;20043;-69
2022/12/27 08:53:41;;;;;;;34.42;5.03;;;;;;;;;;4925421;28;20054;-69
2022/12/27 08:56:06;;;;;;;25.10;3.95;;;;;;;;;;4924929;28;20031;-69
2022/12/27 08:58:32;;;;;;;29.60;4.32;;;;;;;;;;4924964;28;20118;-68
2022/12/27 09:01:07;;;;;;;27.17;3.58;;;;;;;;;;4924738;28;20038;-68
2022/12/27 09:03:32;;;;;;;24.40;3.72;;;;;;;;;;4924818;28;20513;-70
2022/12/27 09:06:11;;;;;;;22.25;3.65;;;;;;;;;;4926100;28;20062;-69
2022/12/27 09:08:37;;;;;;;27.05;4.03;;;;;;;;;;4924742;28;20154;-68
2022/12/27 09:11:06;;;;;;;23.50;3.10;;;;;;;;;;4933433;28;20881;-68
2022/12/27 09:13:34;;;;;;;29.20;3.63;;;;;;;;;;4940913;28;20224;-69
2022/12/27 09:16:03;;;;;;;22.10;3.50;;;;;;;;;;4924080;28;20058;-69
2022/12/27 09:18:28;;;;;;;21.10;3.63;;;;;;;;;;4944000;28;20100;-69
2022/12/27 09:21:01;;;;;;;26.08;3.25;;;;;;;;;;4926207;28;20065;-69
2022/12/27 09:23:28;;;;;;;25.27;3.67;;;;;;;;;;4941921;28;20582;-69
2022/12/27 09:25:53;;;;;;;33.78;4.13;;;;;;;;;;4942743;28;20045;-70
2022/12/27 09:28:18;;;;;;;22.67;3.60;;;;;;;;;;4941585;28;20031;-68
2022/12/27 09:30:46;;;;;;;25.77;3.97;;;;;;;;;;4941857;28;20551;-69
2022/12/27 09:33:11;;;;;;;42.40;4.30;;;;;;;;;;4941205;28;20129;-68
2022/12/27 09:35:37;;;;;;;29.23;4.00;;;;;;;;;;4943707;28;20448;-69
2022/12/27 09:38:05;;;;;;;25.50;4.28;;;;;;;;;;4940568;28;20038;-69
2022/12/27 09:40:30;;;;;;;29.13;4.47;;;;;;;;;;4941853;28;20031;-68
2022/12/27 09:43:06;;;;;;;37.28;4.25;;;;;;;;;;4924490;28;20035;-69
2022/12/27 09:45:46;;;;;;;33.60;4.68;;;;;;;;;;4941675;28;20274;-70
2022/12/27 09:48:16;;;;;;;17.95;3.47;;;;;;;;;;4922263;28;20588;-69
2022/12/27 09:50:53;;;;;;;21.83;3.92;;;;;;;;;;4904734;28;20043;-70
2022/12/27 09:53:18;;;;;;;29.90;4.03;;;;;;;;;;4902952;28;20405;-69
2022/12/27 09:55:48;;;;;;;24.63;3.78;;;;;;;;;;4920385;28;20544;-69
2022/12/27 09:58:29;;;;;;;31.58;3.63;;;;;;;;;;4905303;28;20498;-69
2022/12/27 10:00:56;;;;;;;40.92;4.75;;;;;;;;;;4922224;28;20552;-69
2022/12/27 10:03:26;;;;;;;31.13;4.88;;;;;;;;;;4922866;28;20132;-69
2022/12/27 10:05:59;;;;;;;25.00;3.55;;;;;;;;;;4922063;28;20039;-69
2022/12/27 10:08:27;;;;;;;31.92;4.43;;;;;;;;;;4922050;28;20413;-69
2022/12/27 10:10:55;;;;;;;27.02;4.15;;;;;;;;;;4938556;28;20503;-70
2022/12/27 10:13:23;;;;;;;41.53;4.80;;;;;;;;;;4941149;28;20192;-70
2022/12/27 10:15:48;;;;;;;43.10;4.80;;;;;;;;;;4940193;28;20134;-69
2022/12/27 10:18:31;;;;;;;30.52;4.28;;;;;;;;;;4941395;28;20069;-68
2022/12/27 10:21:11;;;;;;;28.15;4.22;;;;;;;;;;4938559;28;20176;-69
2022/12/27 10:23:41;;;;;;;38.65;5.40;;;;;;;;;;4940718;28;20109;-67
2022/12/27 10:26:11;;;;;;;28.50;4.18;;;;;;;;;;4940018;28;20325;-70
2022/12/27 10:28:44;;;;;;;22.45;3.50;;;;;;;;;;4922555;28;20045;-69
2022/12/27 10:31:19;;;;;;;27.42;3.80;;;;;;;;;;4939586;28;20042;-68
2022/12/27 10:33:46;;;;;;;32.40;4.68;;;;;;;;;;4941736;28;20046;-70
2022/12/27 10:36:13;;;;;;;23.83;4.03;;;;;;;;;;4940590;28;20045;-70
2022/12/27 10:38:38;;;;;;;25.42;4.00;;;;;;;;;;4942031;28;20035;-68
2022/12/27 10:41:18;;;;;;;36.22;4.32;;;;;;;;;;4941107;28;20229;-70
2022/12/27 10:43:45;;;;;;;28.73;3.83;;;;;;;;;;4923905;28;20379;-70
2022/12/27 10:46:12;;;;;;;36.50;5.43;;;;;;;;;;4941092;28;20039;-70
2022/12/27 10:48:37;;;;;;;39.00;5.10;;;;;;;;;;4942784;28;20047;-69
2022/12/27 10:51:09;;;;;;;32.00;3.88;;;;;;;;;;4940605;28;20058;-70
2022/12/27 10:53:37;;;;;;;25.58;4.10;;;;;;;;;;4940380;28;20039;-70
2022/12/27 10:56:08;;;;;;;36.35;4.43;;;;;;;;;;4941381;28;20427;-69
2022/12/27 10:58:38;;;;;;;25.80;3.53;;;;;;;;;;4939776;28;20031;-70
2022/12/27 11:01:14;;;;;;;31.08;4.45;;;;;;;;;;4941145;28;20108;-70
2022/12/27 11:03:39;;;;;;;30.73;4.93;;;;;;;;;;4941162;28;20041;-69
2022/12/27 11:06:05;;;;;;;46.10;6.30;;;;;;;;;;4908416;28;20031;-70
2022/12/27 11:08:31;;;;;;;35.17;4.25;;;;;;;;;;4943673;28;20039;-70
2022/12/27 11:11:16;;;;;;;22.45;3.38;;;;;;;;;;4943714;28;20168;-69
2022/12/27 11:13:41;;;;;;;19.85;4.30;;;;;;;;;;4943398;28;20035;-69
2022/12/27 11:16:12;;;;;;;20.65;2.95;;;;;;;;;;4943710;28;20042;-70
2022/12/27 11:18:41;;;;;;;19.40;3.53;;;;;;;;;;4943572;28;21064;-70
2022/12/27 11:21:10;;;;;;;21.40;3.50;;;;;;;;;;4946560;28;20031;-70
2022/12/27 11:23:42;;;;;;;19.45;3.40;;;;;;;;;;4926235;28;20034;-70
2022/12/27 11:26:12;;;;;;;20.27;3.35;;;;;;;;;;4942622;28;20421;-70
2022/12/27 11:28:43;;;;;;;24.85;6.18;;;;;;;;;;4946464;28;20034;-69
2022/12/27 11:31:15;;;;;;;23.38;4.45;;;;;;;;;;4927585;28;20089;-69
2022/12/27 11:33:44;;;;;;;18.25;3.45;;;;;;;;;;4943907;28;20550;-69
2022/12/27 11:36:12;;;;;;;18.30;3.75;;;;;;;;;;4944578;28;20039;-71
2022/12/27 11:38:41;;;;;;;25.88;4.85;;;;;;;;;;4926023;28;20062;-70
2022/12/27 11:41:09;;;;;;;16.25;3.22;;;;;;;;;;4926244;28;20491;-69
2022/12/27 11:43:36;;;;;;;21.80;3.65;;;;;;;;;;4929329;28;20086;-72
2022/12/27 11:46:03;;;;;;;23.90;4.13;;;;;;;;;;4924320;28;20035;-72
2022/12/27 11:48:32;;;;;;;20.30;3.78;;;;;;;;;;4925820;28;20446;-69
2022/12/27 11:51:00;;;;;;;21.17;4.25;;;;;;;;;;4925004;28;20382;-70
2022/12/27 11:53:31;;;;;;;24.02;4.05;;;;;;;;;;4923827;28;20493;-70
2022/12/27 11:56:15;;;;;;;23.63;4.65;;;;;;;;;;4927062;28;20058;-72
2022/12/27 11:58:52;;;;;;;22.33;3.97;;;;;;;;;;4924602;28;20062;-70
2022/12/27 12:01:20;;;;;;;24.05;4.22;;;;;;;;;;4923895;28;20047;-70
2022/12/27 12:03:46;;;;;;;15.13;3.25;;;;;;;;;;4923683;28;20512;-69
2022/12/27 12:06:19;;;;;;;22.88;3.80;;;;;;;;;;4926666;28;20030;-70
2022/12/27 12:09:01;;;;;;;30.47;4.10;;;;;;;;;;4942538;28;20116;-70
2022/12/27 12:11:53;;;;;;;24.02;6.13;;;;;;;;;;4943089;28;20142;-69
2022/12/27 12:14:27;;;;;;;34.63;7.28;;;;;;;;;;4942206;28;20417;-71
2022/12/27 12:16:55;;;;;;;22.77;6.03;;;;;;;;;;4940613;28;20031;-70
2022/12/27 12:19:40;;;;;;;25.90;5.80;;;;;;;;;;4941189;28;20036;-70
2022/12/27 12:22:24;;;;;;;26.67;8.40;;;;;;;;;;4941823;28;20070;-71
2022/12/27 12:25:09;;;;;;;26.17;5.90;;;;;;;;;;4943671;28;20124;-70
2022/12/27 12:27:47;;;;;;;22.90;5.50;;;;;;;;;;4943737;28;20034;-71
2022/12/27 12:30:12;;;;;;;27.40;6.80;;;;;;;;;;4944372;28;20042;-72
2022/12/27 12:32:49;;;;;;;24.83;6.53;;;;;;;;;;4943713;28;20078;-71
2022/12/27 12:35:18;;;;;;;24.77;7.35;;;;;;;;;;4942950;28;20203;-72
2022/12/27 12:37:50;;;;;;;26.52;7.40;;;;;;;;;;4946605;28;20030;-71
2022/12/27 12:40:34;;;;;;;25.00;6.55;;;;;;;;;;4942817;28;20026;-72
2022/12/27 12:42:59;;;;;;;25.38;7.05;;;;;;;;;;4945103;28;20046;-72
2022/12/27 12:45:31;;;;;;;25.75;8.18;;;;;;;;;;4945407;28;20054;-71
2022/12/27 12:48:08;;;;;;;27.02;8.90;;;;;;;;;;4940925;28;20039;-71
2022/12/27 12:50:39;;;;;;;33.00;9.68;;;;;;;;;;4945727;28;20504;-70
2022/12/27 12:53:23;;;;;;;34.57;10.00;;;;;;;;;;4945081;28;20027;-71
2022/12/27 12:55:57;;;;;;;33.17;10.98;;;;;;;;;;4945817;28;20259;-71
2022/12/27 12:58:31;;;;;;;35.78;13.40;;;;;;;;;;4946855;28;20065;-71
2022/12/27 13:01:00;;;;;;;28.75;10.52;;;;;;;;;;4942295;28;20500;-72
2022/12/27 13:03:37;;;;;;;24.88;9.45;;;;;;;;;;4942600;28;20038;-72
2022/12/27 13:06:11;;;;;;;30.63;8.48;;;;;;;;;;4945625;28;20450;-71
2022/12/27 13:08:43;;;;;;;26.95;8.50;;;;;;;;;;4945727;28;20031;-72
2022/12/27 13:11:11;;;;;;;;;;;;;;;;;;4945535;28;20638;-71
2022/12/27 13:13:49;;;;;;;20.48;5.85;;;;;;;;;;4942650;28;19914;-71
2022/12/27 13:16:39;;;;;;;22.02;5.30;;;;;;;;;;4939744;28;20310;-72
2022/12/27 13:19:25;;;;;;;22.48;6.03;;;;;;;;;;4948330;28;20046;-72
2022/12/27 13:22:07;;;;;;;21.50;5.40;;;;;;;;;;4947451;28;20034;-71
2022/12/27 13:24:49;;;;;;;25.02;5.75;;;;;;;;;;4944061;28;20767;-73
2022/12/27 13:27:24;;;;;;;20.48;5.47;;;;;;;;;;4943062;28;20047;-69
2022/12/27 13:29:55;;;;;;;22.85;6.03;;;;;;;;;;4923451;28;20046;-71
2022/12/27 13:32:27;;;;;;;30.90;6.68;;;;;;;;;;4929115;28;20796;-71
2022/12/27 13:35:01;;;;;;;16.30;5.53;;;;;;;;;;4941334;28;20599;-72
2022/12/27 13:37:51;;;;;;;18.90;5.72;;;;;;;;;;4942154;28;20099;-71
2022/12/27 13:40:26;;;;;;;19.95;5.43;;;;;;;;;;4945922;28;20096;-70
2022/12/27 13:43:21;;;;;;;19.80;5.93;;;;;;;;;;4941955;28;20480;-71
2022/12/27 13:45:58;;;;;;;26.40;7.47;;;;;;;;;;4973045;28;20583;-71
2022/12/27 13:48:43;;;;;;;26.08;6.07;;;;;;;;;;4937133;28;20067;-70
2022/12/27 13:51:08;;;;;;;25.38;7.78;;;;;;;;;;4923525;28;20046;-72
2022/12/27 13:53:42;;;;;;;24.60;7.85;;;;;;;;;;4942577;28;20178;-71
2022/12/27 13:56:24;;;;;;;34.13;8.50;;;;;;;;;;4941057;28;20261;-70
2022/12/27 13:58:49;;;;;;;31.33;9.97;;;;;;;;;;4941433;28;20138;-71
2022/12/27 14:01:27;;;;;;;26.40;8.48;;;;;;;;;;4941322;28;20462;-71
2022/12/27 14:04:11;;;;;;;17.08;4.78;;;;;;;;;;4939783;28;20046;-71
2022/12/27 14:06:47;;;;;;;19.35;4.65;;;;;;;;;;4941342;28;20035;-70
2022/12/27 14:09:34;;;;;;;20.73;5.10;;;;;;;;;;4941932;28;20294;-70
2022/12/27 14:12:00;;;;;;;21.33;4.70;;;;;;;;;;4941385;28;20210;-69
2022/12/27 14:14:26;;;;;;;20.65;5.50;;;;;;;;;;4941337;28;20039;-71
2022/12/27 14:17:04;;;;;;;20.95;5.47;;;;;;;;;;4943876;28;20092;-70
2022/12/27 14:19:41;;;;;;;17.42;4.97;;;;;;;;;;4941890;28;20511;-71
2022/12/27 14:22:13;;;;;;;23.77;5.25;;;;;;;;;;4941205;28;20541;-70
2022/12/27 14:24:44;;;;;;;22.87;7.40;;;;;;;;;;4922690;28;20042;-70
2022/12/27 14:27:31;;;;;;;21.60;7.53;;;;;;;;;;4940867;28;20057;-72
2022/12/27 14:30:02;;;;;;;16.95;5.47;;;;;;;;;;4942919;28;20061;-70
2022/12/27 14:32:27;;;;;;;19.07;6.10;;;;;;;;;;4941171;28;20042;-69
2022/12/27 14:35:04;;;;;;;17.50;6.95;;;;;;;;;;4941514;28;20069;-72
2022/12/27 14:37:44;;;;;;;20.90;7.57;;;;;;;;;;4940857;28;20583;-70
2022/12/27 14:40:28;;;;;;;22.58;6.43;;;;;;;;;;4941836;28;20114;-71
2022/12/27 14:43:12;;;;;;;18.27;7.90;;;;;;;;;;4948182;28;20719;-70
2022/12/27 14:46:07;;;;;;;25.13;7.47;;;;;;;;;;4926833;28;20496;-70
2022/12/27 14:48:39;;;;;;;21.60;9.20;;;;;;;;;;4943325;28;20129;-69
2022/12/27 14:51:07;;;;;;;25.70;9.47;;;;;;;;;;4944450;28;20035;-70
2022/12/27 14:53:49;;;;;;;16.73;6.32;;;;;;;;;;4925104;28;20949;-70
2022/12/27 14:56:19;;;;;;;14.52;6.30;;;;;;;;;;4948594;28;20442;-71
2022/12/27 14:58:58;;;;;;;22.63;5.90;;;;;;;;;;4944801;28;20677;-70
2022/12/27 15:01:38;;;;;;;29.00;10.23;;;;;;;;;;4927365;28;20034;-70
2022/12/27 15:04:22;;;;;;;21.52;7.22;;;;;;;;;;4944505;28;20042;-72
2022/12/27 15:07:07;;;;;;;14.82;5.03;;;;;;;;;;4943134;28;20116;-69
2022/12/27 15:09:35;;;;;;;17.80;4.90;;;;;;;;;;4947445;28;20031;-70
2022/12/27 15:12:09;;;;;;;16.70;4.70;;;;;;;;;;4945305;28;20047;-72
2022/12/27 15:14:44;;;;;;;17.30;5.20;;;;;;;;;;4945941;28;20489;-70
2022/12/27 15:17:48;;;;;;;13.48;4.93;;;;;;;;;;4927928;28;20031;-71
2022/12/27 15:20:28;;;;;;;15.77;5.05;;;;;;;;;;4981294;28;20045;-70
2022/12/27 15:23:10;;;;;;;14.05;4.95;;;;;;;;;;4986151;28;20105;-70
2022/12/27 15:25:44;;;;;;;13.70;6.00;;;;;;;;;;4958565;28;20347;-70
2022/12/27 15:28:09;;;;;;;26.35;8.30;;;;;;;;;;4944270;28;20296;-70
2022/12/27 15:30:45;;;;;;;24.23;8.68;;;;;;;;;;4944045;28;20023;-70
2022/12/27 15:33:36;;;;;;;24.15;9.05;;;;;;;;;;4925576;28;20144;-70
2022/12/27 15:36:06;;;;;;;32.53;12.75;;;;;;;;;;4947808;28;20564;-71
2022/12/27 15:38:37;;;;;;;23.52;8.82;;;;;;;;;;4944535;28;20039;-69
2022/12/27 15:41:05;;;;;;;23.92;8.60;;;;;;;;;;4926857;28;20549;-71
2022/12/27 15:43:43;;;;;;;23.48;9.43;;;;;;;;;;4944024;28;20453;-70
2022/12/27 15:46:21;;;;;;;28.08;10.80;;;;;;;;;;4942859;28;20027;-70
2022/12/27 15:48:49;;;;;;;24.35;11.95;;;;;;;;;;4946794;28;20416;-70
2022/12/27 15:51:14;;;;;;;26.60;11.18;;;;;;;;;;4942987;28;20493;-70
2022/12/27 15:53:47;;;;;;;30.80;12.23;;;;;;;;;;4944019;28;20132;-71
2022/12/27 15:56:31;;;;;;;30.17;12.80;;;;;;;;;;4943012;28;20027;-70
2022/12/27 15:59:20;;;;;;;26.35;10.95;;;;;;;;;;4941352;28;20054;-71
2022/12/27 16:01:45;;;;;;;26.90;10.95;;;;;;;;;;4947051;28;20653;-70
2022/12/27 16:04:29;;;;;;;39.75;13.55;;;;;;;;;;4925840;28;20534;-71
2022/12/27 16:06:57;;;;;;;36.30;13.45;;;;;;;;;;4943903;28;20030;-70
2022/12/27 16:09:23;;;;;;;29.40;12.15;;;;;;;;;;4925373;28;20319;-69
2022/12/27 16:11:58;;;;;;;29.75;10.20;;;;;;;;;;4942832;28;20294;-70
2022/12/27 16:14:31;;;;;;;45.50;11.55;;;;;;;;;;4946656;28;20607;-70
2022/12/27 16:17:19;;;;;;;47.55;13.70;;;;;;;;;;4944864;28;20169;-70
2022/12/27 16:19:50;;;;;;;40.75;12.88;;;;;;;;;;4933008;28;20193;-70
2022/12/27 16:22:41;;;;;;;37.80;11.35;;;;;;;;;;4942061;28;20039;-72
2022/12/27 16:25:27;;;;;;;24.90;10.98;;;;;;;;;;4937747;28;20034;-70
2022/12/27 16:27:58;;;;;;;28.58;10.57;;;;;;;;;;4946688;28;20121;-71